createdAt,value
2022-08-19T00:01:59.009Z,56.66
2022-08-19T00:04:28.164Z,57.07
2022-08-19T00:06:54.670Z,57.26
2022-08-19T00:09:22.485Z,57.47
2022-08-19T00:11:49.073Z,57.20
2022-08-19T00:14:16.659Z,58.07
2022-08-19T00:16:44.191Z,57.44
2022-08-19T00:19:11.239Z,57.97
2022-08-19T00:21:40.453Z,58.72
2022-08-19T00:24:08.776Z,58.16
2022-08-19T00:26:35.260Z,58.65
2022-08-19T00:29:02.142Z,58.79
2022-08-19T00:31:29.034Z,58.94
2022-08-19T00:33:55.660Z,58.88
2022-08-19T00:36:22.228Z,59.32
2022-08-19T00:38:49.557Z,59.36
2022-08-19T00:41:18.479Z,59.81
2022-08-19T00:43:57.065Z,60.74
2022-08-19T00:46:23.542Z,60.89
2022-08-19T00:48:50.039Z,61.22
2022-08-19T00:51:16.521Z,62.41
2022-08-19T00:53:44.555Z,62.96
2022-08-19T00:56:11.472Z,63.44
2022-08-19T00:58:38.113Z,63.32
2022-08-19T01:01:05.070Z,63.95
2022-08-19T01:03:56.808Z,64.40
2022-08-19T01:06:19.933Z,64.30
2022-08-19T01:08:47.433Z,64.03
2022-08-19T01:11:16.846Z,64.20
2022-08-19T01:13:48.922Z,65.22
2022-08-19T01:16:17.608Z,64.59
2022-08-19T01:18:44.055Z,65.07
2022-08-19T01:21:16.966Z,64.87
2022-08-19T01:23:44.407Z,65.45
2022-08-19T01:26:13.234Z,66.37
2022-08-19T01:28:41.023Z,66.54
2022-08-19T01:31:26.341Z,65.73
2022-08-19T01:33:56.192Z,66.72
2022-08-19T01:36:24.775Z,66.01
2022-08-19T01:38:51.266Z,66.43
2022-08-19T01:41:18.524Z,66.33
2022-08-19T01:44:13.160Z,65.93
2022-08-19T01:46:33.137Z,66.18
2022-08-19T01:49:01.521Z,65.55
2022-08-19T01:51:28.621Z,64.65
2022-08-19T01:53:55.303Z,64.59
2022-08-19T01:56:21.849Z,63.94
2022-08-19T01:58:52.239Z,63.90
2022-08-19T02:01:18.860Z,64.17
2022-08-19T02:03:45.373Z,64.75
2022-08-19T02:06:12.174Z,64.29
2022-08-19T02:08:39.452Z,64.70
2022-08-19T02:11:06.543Z,64.11
2022-08-19T02:13:33.428Z,64.34
2022-08-19T02:16:00.061Z,63.67
2022-08-19T02:18:28.133Z,63.41
2022-08-19T02:20:54.844Z,63.60
2022-08-19T02:23:21.295Z,63.20
2022-08-19T02:25:48.995Z,63.14
2022-08-19T02:28:18.760Z,63.55
2022-08-19T02:30:46.109Z,63.01
2022-08-19T02:33:12.573Z,62.88
2022-08-19T02:35:41.791Z,62.99
2022-08-19T02:38:26.409Z,62.54
2022-08-19T02:40:54.733Z,62.39
2022-08-19T02:43:21.716Z,63.24
2022-08-19T02:45:49.330Z,62.91
2022-08-19T02:48:21.902Z,63.38
2022-08-19T02:50:53.248Z,63.26
2022-08-19T02:53:19.957Z,62.97
2022-08-19T02:55:47.623Z,63.61
2022-08-19T02:58:14.965Z,63.74
2022-08-19T03:00:50.618Z,63.92
2022-08-19T03:03:18.028Z,64.46
2022-08-19T03:05:48.323Z,64.79
2022-08-19T03:08:22.847Z,65.42
2022-08-19T03:10:49.426Z,65.34
2022-08-19T03:13:17.566Z,65.25
2022-08-19T03:15:45.338Z,66.07
2022-08-19T03:18:12.511Z,65.90
2022-08-19T03:20:43.458Z,65.82
2022-08-19T03:23:10.008Z,66.44
2022-08-19T03:25:41.828Z,66.75
2022-08-19T03:28:08.398Z,66.29
2022-08-19T03:30:35.115Z,66.38
2022-08-19T03:33:01.625Z,66.31
2022-08-19T03:35:28.431Z,66.73
2022-08-19T03:37:55.035Z,66.99
2022-08-19T03:40:21.571Z,67.18
2022-08-19T03:42:49.202Z,66.62
2022-08-19T03:45:16.151Z,66.37
2022-08-19T03:47:42.683Z,66.28
2022-08-19T03:50:10.070Z,66.01
2022-08-19T03:52:36.974Z,66.07
2022-08-19T03:55:03.906Z,66.14
2022-08-19T03:57:31.651Z,66.18
2022-08-19T04:00:12.584Z,65.56
2022-08-19T04:02:39.880Z,65.58
2022-08-19T04:05:06.677Z,65.70
2022-08-19T04:07:33.307Z,67.06
2022-08-19T04:10:00.247Z,66.64
2022-08-19T04:12:26.741Z,66.67
2022-08-19T04:14:53.227Z,67.48
2022-08-19T04:17:19.717Z,67.64
2022-08-19T04:19:46.166Z,70.26
2022-08-19T04:22:12.652Z,71.41
2022-08-19T04:24:39.155Z,66.82
2022-08-19T04:27:07.112Z,66.34
2022-08-19T04:29:33.701Z,66.27
2022-08-19T04:32:00.321Z,66.12
2022-08-19T04:35:16.150Z,65.15
2022-08-19T04:37:24.231Z,64.57
2022-08-19T04:40:09.296Z,65.06
2022-08-19T04:42:45.004Z,63.94
2022-08-19T04:45:13.898Z,64.87
2022-08-19T04:47:51.410Z,62.21
2022-08-19T04:50:26.825Z,59.63
2022-08-19T04:52:53.542Z,60.51
2022-08-19T04:55:20.235Z,58.60
2022-08-19T04:57:46.673Z,56.19
2022-08-19T05:00:13.373Z,55.75
2022-08-19T05:02:39.986Z,55.44
2022-08-19T05:05:07.501Z,53.39
2022-08-19T05:07:34.153Z,53.51
2022-08-19T05:10:00.656Z,51.09
2022-08-19T05:12:29.742Z,50.14
2022-08-19T05:14:57.808Z,50.24
2022-08-19T05:17:27.605Z,49.26
2022-08-19T05:20:13.736Z,46.89
2022-08-19T05:22:40.352Z,48.66
2022-08-19T05:25:13.107Z,46.29
2022-08-19T05:27:40.182Z,46.15
2022-08-19T05:30:06.898Z,48.76
2022-08-19T05:32:33.410Z,46.90
2022-08-19T05:34:59.899Z,47.47
2022-08-19T05:37:28.615Z,44.87
2022-08-19T05:39:55.833Z,43.62
2022-08-19T05:42:23.781Z,44.82
2022-08-19T05:44:50.608Z,45.01
2022-08-19T05:47:17.721Z,42.20
2022-08-19T05:49:44.961Z,43.49
2022-08-19T05:52:13.005Z,40.74
2022-08-19T05:54:41.344Z,41.20
2022-08-19T05:57:08.493Z,40.59
2022-08-19T05:59:39.137Z,39.89
2022-08-19T06:02:07.553Z,41.96
2022-08-19T06:04:34.618Z,41.97
2022-08-19T06:07:11.949Z,43.71
2022-08-19T06:09:39.811Z,41.20
2022-08-19T06:12:06.729Z,38.38
2022-08-19T06:14:35.557Z,40.68
2022-08-19T06:17:07.511Z,41.05
2022-08-19T06:19:34.288Z,41.61
2022-08-19T06:22:01.255Z,41.35
2022-08-19T06:24:30.296Z,38.47
2022-08-19T06:27:00.835Z,38.50
2022-08-19T06:29:29.062Z,38.68
2022-08-19T06:31:57.185Z,39.44
2022-08-19T06:34:23.799Z,39.43
2022-08-19T06:36:51.533Z,35.72
2022-08-19T06:39:20.167Z,36.14
2022-08-19T06:41:51.793Z,38.14
2022-08-19T06:44:22.189Z,40.28
2022-08-19T06:46:54.854Z,37.74
2022-08-19T06:49:21.722Z,39.95
2022-08-19T06:51:49.443Z,39.96
2022-08-19T06:54:19.416Z,39.92
2022-08-19T06:56:46.789Z,37.42
2022-08-19T06:59:15.309Z,36.53
2022-08-19T07:01:47.954Z,37.22
2022-08-19T07:04:22.170Z,36.85
2022-08-19T07:06:55.047Z,35.83
2022-08-19T07:09:22.097Z,35.60
2022-08-19T07:11:53.506Z,36.34
2022-08-19T07:14:21.117Z,35.54
2022-08-19T07:16:48.946Z,35.01
2022-08-19T07:19:16.090Z,33.12
2022-08-19T07:21:45.254Z,32.90
2022-08-19T07:24:11.988Z,32.71
2022-08-19T07:26:42.395Z,31.56
2022-08-19T07:29:11.075Z,32.84
2022-08-19T07:31:38.187Z,30.94
2022-08-19T07:34:09.030Z,29.29
2022-08-19T07:36:37.295Z,31.09
2022-08-19T07:39:08.777Z,28.81
2022-08-19T07:41:36.343Z,29.66
2022-08-19T07:44:04.750Z,29.45
2022-08-19T07:46:35.063Z,28.58
2022-08-19T07:49:01.595Z,29.42
2022-08-19T07:51:36.164Z,27.09
2022-08-19T07:54:04.318Z,29.35
2022-08-19T07:56:30.960Z,28.60
2022-08-19T07:58:57.516Z,26.92
2022-08-19T08:01:25.773Z,27.01
2022-08-19T08:04:11.830Z,25.86
2022-08-19T08:06:57.156Z,28.67
2022-08-19T08:09:26.301Z,26.60
2022-08-19T08:12:01.934Z,26.90
2022-08-19T08:14:34.986Z,27.24
2022-08-19T08:17:02.299Z,25.48
2022-08-19T08:19:29.127Z,26.49
2022-08-19T08:21:56.766Z,27.66
2022-08-19T08:24:23.688Z,27.34
2022-08-19T08:26:57.086Z,26.57
2022-08-19T08:29:24.430Z,28.55
2022-08-19T08:31:58.613Z,27.02
2022-08-19T08:34:26.578Z,27.39
2022-08-19T08:36:53.150Z,26.56
2022-08-19T08:39:21.005Z,27.61
2022-08-19T08:42:00.724Z,28.03
2022-08-19T08:44:44.169Z,27.28
2022-08-19T08:47:14.863Z,27.29
2022-08-19T08:49:51.278Z,28.11
2022-08-19T08:52:18.141Z,29.58
2022-08-19T08:54:54.748Z,28.90
2022-08-19T08:57:25.085Z,30.13
2022-08-19T08:59:52.894Z,30.06
2022-08-19T09:02:19.722Z,28.88
2022-08-19T09:04:46.503Z,29.30
2022-08-19T09:07:35.834Z,29.93
2022-08-19T09:10:08.812Z,30.25
2022-08-19T09:12:39.942Z,28.84
2022-08-19T09:15:10.779Z,29.67
2022-08-19T09:17:39.358Z,28.99
2022-08-19T09:20:09.399Z,29.27
2022-08-19T09:22:36.614Z,30.13
2022-08-19T09:25:03.491Z,28.00
2022-08-19T09:27:41.967Z,28.81
2022-08-19T09:30:19.184Z,28.38
2022-08-19T09:32:46.427Z,28.57
2022-08-19T09:35:13.976Z,28.63
2022-08-19T09:37:40.714Z,28.67
2022-08-19T09:40:08.217Z,28.60
2022-08-19T09:42:35.761Z,28.91
2022-08-19T09:45:05.150Z,28.19
2022-08-19T09:47:39.031Z,29.72
2022-08-19T09:50:08.724Z,28.23
2022-08-19T09:52:37.498Z,27.95
2022-08-19T09:55:07.462Z,27.18
2022-08-19T09:57:34.972Z,27.65
2022-08-19T10:00:01.784Z,27.88
2022-08-19T10:02:28.938Z,28.14
2022-08-19T10:05:14.080Z,28.66
2022-08-19T10:07:49.653Z,27.09
2022-08-19T10:10:16.620Z,26.51
2022-08-19T10:12:48.752Z,27.11
2022-08-19T10:15:16.084Z,25.98
2022-08-19T10:17:54.934Z,25.93
2022-08-19T10:20:22.813Z,27.01
2022-08-19T10:22:49.306Z,25.45
2022-08-19T10:25:18.771Z,25.46
2022-08-19T10:27:47.903Z,24.38
2022-08-19T10:30:18.172Z,25.80
2022-08-19T10:32:46.961Z,25.42
2022-08-19T10:35:13.881Z,24.01
2022-08-19T10:37:56.838Z,24.02
2022-08-19T10:40:24.757Z,24.14
2022-08-19T10:42:51.251Z,23.78
2022-08-19T10:45:18.038Z,24.61
2022-08-19T10:47:44.484Z,24.41
2022-08-19T10:50:30.193Z,24.36
2022-08-19T10:52:56.674Z,23.42
2022-08-19T10:55:43.218Z,23.79
2022-08-19T10:58:14.089Z,23.45
2022-08-19T11:00:41.482Z,23.86
2022-08-19T11:03:08.016Z,23.28
2022-08-19T11:05:39.866Z,23.26
2022-08-19T11:08:22.955Z,23.52
2022-08-19T11:10:50.662Z,22.98
2022-08-19T11:13:17.262Z,22.95
2022-08-19T11:15:44.110Z,23.37
2022-08-19T11:18:13.508Z,22.08
2022-08-19T11:20:40.142Z,22.71
2022-08-19T11:23:07.442Z,22.75
2022-08-19T11:25:34.307Z,23.16
2022-08-19T11:28:00.777Z,23.14
2022-08-19T11:30:28.547Z,22.38
2022-08-19T11:32:55.035Z,22.28
2022-08-19T11:35:22.119Z,22.42
2022-08-19T11:37:48.733Z,21.82
2022-08-19T11:40:15.300Z,22.89
2022-08-19T11:42:57.235Z,21.85
2022-08-19T11:45:29.003Z,22.93
2022-08-19T11:47:56.205Z,22.70
2022-08-19T11:50:24.487Z,22.22
2022-08-19T11:52:51.863Z,22.52
2022-08-19T11:55:18.368Z,22.23
2022-08-19T11:57:44.877Z,21.93
2022-08-19T12:00:13.647Z,21.30
2022-08-19T12:02:40.637Z,22.89
2022-08-19T12:05:12.031Z,20.99
2022-08-19T12:07:39.500Z,21.64
2022-08-19T12:10:06.130Z,21.79
2022-08-19T12:12:32.658Z,21.95
2022-08-19T12:14:59.470Z,22.21
2022-08-19T12:17:29.670Z,21.93
2022-08-19T12:19:56.273Z,22.74
2022-08-19T12:22:23.108Z,23.67
2022-08-19T12:24:51.686Z,22.30
2022-08-19T12:27:32.174Z,21.94
2022-08-19T12:30:05.621Z,20.69
2022-08-19T12:32:32.067Z,21.47
2022-08-19T12:34:58.497Z,20.79
2022-08-19T12:37:25.005Z,20.75
2022-08-19T12:39:51.701Z,20.35
2022-08-19T12:42:18.919Z,20.25
2022-08-19T12:44:46.351Z,21.03
2022-08-19T12:47:15.356Z,20.75
2022-08-19T12:49:53.339Z,21.31
2022-08-19T12:52:23.550Z,20.62
2022-08-19T12:54:53.928Z,21.96
2022-08-19T12:57:21.488Z,21.85
2022-08-19T12:59:52.730Z,21.12
2022-08-19T13:02:19.173Z,21.88
2022-08-19T13:04:45.701Z,22.11
2022-08-19T13:07:12.562Z,21.31
2022-08-19T13:09:41.140Z,21.31
2022-08-19T13:12:08.758Z,19.52
2022-08-19T13:14:35.792Z,20.42
2022-08-19T13:17:05.544Z,21.15
2022-08-19T13:19:32.590Z,21.84
2022-08-19T13:22:00.331Z,21.26
2022-08-19T13:24:31.347Z,22.04
2022-08-19T13:27:00.985Z,21.06
2022-08-19T13:29:45.981Z,21.14
2022-08-19T13:32:31.098Z,21.09
2022-08-19T13:34:57.588Z,21.24
2022-08-19T13:37:42.101Z,21.15
2022-08-19T13:40:19.576Z,22.46
2022-08-19T13:42:55.011Z,22.36
2022-08-19T13:45:23.205Z,21.37
2022-08-19T13:47:53.575Z,22.19
2022-08-19T13:50:25.231Z,23.75
2022-08-19T13:52:51.726Z,23.07
2022-08-19T13:55:22.173Z,23.54
2022-08-19T13:57:53.958Z,22.59
2022-08-19T14:00:21.200Z,22.40
2022-08-19T14:02:48.468Z,23.89
2022-08-19T14:05:16.430Z,26.02
2022-08-19T14:07:42.924Z,26.48
2022-08-19T14:10:10.866Z,26.36
2022-08-19T14:12:37.773Z,27.34
2022-08-19T14:15:05.327Z,28.66
2022-08-19T14:17:31.877Z,29.83
2022-08-19T14:20:10.413Z,31.94
2022-08-19T14:22:39.089Z,32.65
2022-08-19T14:25:06.593Z,33.18
2022-08-19T14:27:36.229Z,33.41
2022-08-19T14:30:04.079Z,34.16
2022-08-19T14:32:30.836Z,35.31
2022-08-19T14:34:57.328Z,34.95
2022-08-19T14:37:23.828Z,34.32
2022-08-19T14:39:51.641Z,34.60
2022-08-19T14:42:18.445Z,34.15
2022-08-19T14:44:44.923Z,34.30
2022-08-19T14:47:11.380Z,35.21
2022-08-19T14:49:41.240Z,35.20
2022-08-19T14:52:10.327Z,35.07
2022-08-19T14:54:36.803Z,35.11
2022-08-19T14:57:03.425Z,36.17
2022-08-19T14:59:29.921Z,35.68
2022-08-19T15:01:56.522Z,35.58
2022-08-19T15:04:23.055Z,33.13
2022-08-19T15:06:51.621Z,32.01
2022-08-19T15:09:18.375Z,32.47
2022-08-19T15:11:44.922Z,32.01
2022-08-19T15:14:11.485Z,32.78
2022-08-19T15:16:40.452Z,32.06
2022-08-19T15:19:06.960Z,32.09
2022-08-19T15:21:33.784Z,31.79
2022-08-19T15:24:01.747Z,31.98
2022-08-19T15:26:32.489Z,31.91
2022-08-19T15:29:00.393Z,31.85
2022-08-19T15:31:29.050Z,32.02
2022-08-19T15:33:58.200Z,31.47
2022-08-19T15:36:26.242Z,31.89
2022-08-19T15:38:53.385Z,32.19
2022-08-19T15:41:25.466Z,31.88
2022-08-19T15:44:03.722Z,32.07
2022-08-19T15:46:31.522Z,32.11
2022-08-19T15:48:59.904Z,32.18
2022-08-19T15:51:27.851Z,32.26
2022-08-19T15:53:55.287Z,32.11
2022-08-19T15:56:25.555Z,32.21
2022-08-19T15:59:12.405Z,32.23
2022-08-19T16:01:57.654Z,32.23
2022-08-19T16:04:43.372Z,32.39
2022-08-19T16:07:10.349Z,32.28
2022-08-19T16:09:36.885Z,32.28
2022-08-19T16:12:04.942Z,32.44
2022-08-19T16:14:35.477Z,32.40
2022-08-19T16:17:02.070Z,32.32
2022-08-19T16:19:28.563Z,32.83
2022-08-19T16:21:56.343Z,33.16
2022-08-19T16:24:24.277Z,32.74
2022-08-19T16:26:50.941Z,33.36
2022-08-19T16:29:21.995Z,33.18
2022-08-19T16:32:01.025Z,32.97
2022-08-19T16:34:29.347Z,33.67
2022-08-19T16:36:56.095Z,33.87
2022-08-19T16:39:23.759Z,33.29
2022-08-19T16:41:51.032Z,33.11
2022-08-19T16:44:20.898Z,33.89
2022-08-19T16:46:58.549Z,33.67
2022-08-19T16:49:53.884Z,33.56
2022-08-19T16:52:13.023Z,33.75
2022-08-19T16:54:41.686Z,33.82
2022-08-19T16:57:11.691Z,34.14
2022-08-19T16:59:39.506Z,34.42
2022-08-19T17:02:15.242Z,34.61
2022-08-19T17:04:41.802Z,35.11
2022-08-19T17:07:09.785Z,35.96
2022-08-19T17:09:36.732Z,36.43
2022-08-19T17:12:04.673Z,36.79
2022-08-19T17:14:31.233Z,37.09
2022-08-19T17:16:57.714Z,37.07
2022-08-19T17:19:24.162Z,37.33
2022-08-19T17:21:50.601Z,37.72
2022-08-19T17:24:17.168Z,38.69
2022-08-19T17:26:43.968Z,38.85
2022-08-19T17:29:10.473Z,39.34
2022-08-19T17:31:36.953Z,39.68
2022-08-19T17:34:03.687Z,39.97
2022-08-19T17:36:32.968Z,40.12
2022-08-19T17:39:00.687Z,40.48
2022-08-19T17:41:27.920Z,40.09
2022-08-19T17:43:54.652Z,40.10
2022-08-19T17:46:21.348Z,40.04
2022-08-19T17:48:54.663Z,39.70
2022-08-19T17:51:23.397Z,38.98
2022-08-19T17:53:51.398Z,39.12
2022-08-19T17:56:18.046Z,38.94
2022-08-19T17:58:46.621Z,39.14
2022-08-19T18:01:27.559Z,39.38
2022-08-19T18:04:07.325Z,39.44
2022-08-19T18:06:36.361Z,39.54
2022-08-19T18:09:05.985Z,39.79
2022-08-19T18:11:32.857Z,39.96
2022-08-19T18:13:59.407Z,40.28
2022-08-19T18:16:26.199Z,40.38
2022-08-19T18:18:53.908Z,40.59
2022-08-19T18:21:21.940Z,40.50
2022-08-19T18:23:48.766Z,40.46
2022-08-19T18:26:15.238Z,42.01
2022-08-19T18:28:49.993Z,43.79
2022-08-19T18:31:17.379Z,45.33
2022-08-19T18:33:44.593Z,46.61
2022-08-19T18:36:11.349Z,46.78
2022-08-19T18:38:56.258Z,46.60
2022-08-19T18:41:41.085Z,46.88
2022-08-19T18:44:25.905Z,48.70
2022-08-19T18:47:13.736Z,49.42
2022-08-19T18:49:40.544Z,51.04
2022-08-19T18:52:07.103Z,51.52
2022-08-19T18:54:34.476Z,52.54
2022-08-19T18:57:03.451Z,53.94
2022-08-19T18:59:30.214Z,54.46
2022-08-19T19:01:58.465Z,54.77
2022-08-19T19:04:36.220Z,55.39
2022-08-19T19:07:04.982Z,56.04
2022-08-19T19:09:31.598Z,56.74
2022-08-19T19:11:59.795Z,57.59
2022-08-19T19:14:48.061Z,57.65
2022-08-19T19:17:15.952Z,58.24
2022-08-19T19:19:43.027Z,58.73
2022-08-19T19:22:13.915Z,58.27
2022-08-19T19:24:44.304Z,57.69
2022-08-19T19:27:12.941Z,58.03
2022-08-19T19:29:40.096Z,57.69
2022-08-19T19:32:11.317Z,58.68
2022-08-19T19:34:38.641Z,59.47
2022-08-19T19:37:05.191Z,61.30
2022-08-19T19:39:44.937Z,63.61
2022-08-19T19:42:20.381Z,64.59
2022-08-19T19:44:49.277Z,64.52
2022-08-19T19:47:16.141Z,67.98
2022-08-19T19:50:03.977Z,67.55
2022-08-19T19:52:29.675Z,69.62
2022-08-19T19:54:56.942Z,71.86
2022-08-19T19:57:23.772Z,72.34
2022-08-19T19:59:51.437Z,72.98
2022-08-19T20:02:18.308Z,73.52
2022-08-19T20:04:45.072Z,75.90
2022-08-19T20:07:11.566Z,78.05
2022-08-19T20:09:56.688Z,77.87
2022-08-19T20:12:24.769Z,79.26
2022-08-19T20:14:51.334Z,74.46
2022-08-19T20:17:20.623Z,78.08
2022-08-19T20:19:47.959Z,82.46
2022-08-19T20:22:14.614Z,86.10
2022-08-19T20:24:42.697Z,97.07
2022-08-19T20:27:10.749Z,100.00
2022-08-19T20:29:41.504Z,100.00
2022-08-19T20:32:11.521Z,100.00
2022-08-19T20:34:39.263Z,100.00
2022-08-19T20:37:11.779Z,100.00
2022-08-19T20:39:38.378Z,100.00
2022-08-19T20:42:05.388Z,100.00
2022-08-19T20:44:31.883Z,100.00
2022-08-19T20:47:02.949Z,100.00
2022-08-19T20:49:30.231Z,100.00
2022-08-19T20:51:56.890Z,100.00
2022-08-19T20:54:24.146Z,100.00
2022-08-19T20:56:51.100Z,100.00
2022-08-19T20:59:17.776Z,100.00
2022-08-19T21:01:44.273Z,100.00
2022-08-19T21:04:10.817Z,100.00
2022-08-19T21:06:38.585Z,100.00
2022-08-19T21:09:08.706Z,100.00
2022-08-19T21:11:36.118Z,100.00
2022-08-19T21:14:02.903Z,100.00
2022-08-19T21:16:29.438Z,100.00
2022-08-19T21:18:55.938Z,100.00
2022-08-19T21:21:22.425Z,100.00
2022-08-19T21:23:49.629Z,100.00
2022-08-19T21:26:16.230Z,100.00
2022-08-19T21:28:42.721Z,100.00
2022-08-19T21:31:10.594Z,100.00
2022-08-19T21:33:37.551Z,100.00
2022-08-19T21:36:04.417Z,100.00
2022-08-19T21:38:31.118Z,100.00
2022-08-19T21:40:57.602Z,100.00
2022-08-19T21:43:24.145Z,100.00
2022-08-19T21:45:51.097Z,100.00
2022-08-19T21:48:17.838Z,100.00
2022-08-19T21:50:45.989Z,100.00
2022-08-19T21:53:17.437Z,100.00
2022-08-19T21:55:44.413Z,100.00
2022-08-19T21:58:11.810Z,100.00
2022-08-19T22:00:38.671Z,100.00
2022-08-19T22:03:05.378Z,100.00
2022-08-19T22:05:33.349Z,100.00
2022-08-19T22:08:01.037Z,100.00
2022-08-19T22:10:29.071Z,100.00
2022-08-19T22:12:56.270Z,100.00
2022-08-19T22:15:23.892Z,100.00
2022-08-19T22:17:51.199Z,100.00
2022-08-19T22:20:20.254Z,100.00
2022-08-19T22:22:52.082Z,100.00
2022-08-19T22:25:30.224Z,100.00
2022-08-19T22:28:00.414Z,100.00
2022-08-19T22:30:28.097Z,100.00
2022-08-19T22:33:01.362Z,100.00
2022-08-19T22:35:31.324Z,100.00
2022-08-19T22:37:59.006Z,100.00
2022-08-19T22:40:26.416Z,100.00
2022-08-19T22:43:07.169Z,100.00
2022-08-19T22:45:35.229Z,100.00
2022-08-19T22:48:02.270Z,100.00
2022-08-19T22:50:28.750Z,100.00
2022-08-19T22:52:58.967Z,100.00
2022-08-19T22:55:26.660Z,100.00
2022-08-19T22:57:53.499Z,100.00
2022-08-19T23:00:21.467Z,100.00
2022-08-19T23:02:52.142Z,100.00
2022-08-19T23:05:21.769Z,100.00
2022-08-19T23:07:52.689Z,100.00
2022-08-19T23:10:27.368Z,100.00
2022-08-19T23:12:56.346Z,100.00
2022-08-19T23:15:25.960Z,100.00
2022-08-19T23:17:54.025Z,100.00
2022-08-19T23:20:21.001Z,100.00
2022-08-19T23:22:49.732Z,100.00
2022-08-19T23:25:18.112Z,100.00
2022-08-19T23:28:03.559Z,100.00
2022-08-19T23:30:31.674Z,100.00
2022-08-19T23:32:58.303Z,100.00
2022-08-19T23:35:26.404Z,100.00
2022-08-19T23:37:53.096Z,100.00
2022-08-19T23:40:22.040Z,100.00
2022-08-19T23:42:49.971Z,100.00
2022-08-19T23:45:18.104Z,100.00
2022-08-19T23:47:50.236Z,100.00
2022-08-19T23:50:17.549Z,100.00
2022-08-19T23:52:49.702Z,100.00
2022-08-19T23:55:17.170Z,100.00
2022-08-19T23:57:43.857Z,100.00
